M/V Saviour — WDD5064 — position and weather

sailwx.info

Track history (hours):
 
Tides and Currents Weather Stations Pressure Air Temp Water Temp Dewpoint Dewpoint Depression Visibility Wind Speed Wind Dir Waves Ship Positions

M/V Saviour

Owner: Marquette Transportation Company Gulf-Inland, LLC, Jefferson, LA. More information available from US FCC via Universal Licensing System and Coast Guard Vessel Documentation Center.

Last reported at 2017-Dec-11 12:48 UTC. Time now 2017-Dec-14 13:12 UTC.
Position N 29°58' W 092°49'.

Length 22 m; draft 2.7 m.

Type: . MMSI: 367151460.

Date/timePositionNaut miles runAvg speedWind from/ knotsBaromVisibWave heightAir tempDewpointWater temp
2017-Dec-11 12:48N 29°58' W 092°49'1 4.4
2017-Dec-11 12:30N 29°58' W 092°50'2 4.4
2017-Dec-11 12:00N 29°57' W 092°53'2 4.3
2017-Dec-11 11:30N 29°56' W 092°55'2 4.2
2017-Dec-11 11:00N 29°56' W 092°57'2 4.2
2017-Dec-11 10:30N 29°56' W 092°60'2 4.3
2017-Dec-11 10:00N 29°56' W 093°02'2 3.7
2017-Dec-11 09:31N 29°56' W 093°04'2 4.2
2017-Dec-11 09:00N 29°56' W 093°07'2 4.3
2017-Dec-11 08:30N 29°56' W 093°09'2 3.2
2017-Dec-11 08:00N 29°57' W 093°11'2 3.7
2017-Dec-11 07:31N 29°59' W 093°12'2 4.3
2017-Dec-11 07:00N 30°00' W 093°14'2 3.6
2017-Dec-11 06:30N 30°02' W 093°15'2 3.9
2017-Dec-11 06:01N 30°04' W 093°16'2 4.4
2017-Dec-11 05:31N 30°05' W 093°17'0 0.9
2017-Dec-11 05:01N 30°05' W 093°18'2 3.4
2017-Dec-11 04:30N 30°05' W 093°20'2 4.3
2017-Dec-11 04:00N 30°04' W 093°22'2 4.5
2017-Dec-11 03:30N 30°04' W 093°24'2 4.8
2017-Dec-11 03:00N 30°04' W 093°27'2 3.4
2017-Dec-11 02:30N 30°04' W 093°29'2 4.6
2017-Dec-11 02:01N 30°04' W 093°32'2 4.7
2017-Dec-11 01:31N 30°04' W 093°34'2 4.7
2017-Dec-11 00:59N 30°04' W 093°37'2 4.5
2017-Dec-11 00:30N 30°04' W 093°40'3 4.5
2017-Dec-10 23:49N 30°03' W 093°43'70 4.1
2017-Dec-10 06:47N 29°22' W 094°48'1 4.4
2017-Dec-10 06:30N 29°23' W 094°49'2 4.5
2017-Dec-10 05:57N 29°26' W 094°50'2 4.2
2017-Dec-10 05:26N 29°27' W 094°51'2 4.6
2017-Dec-10 04:59N 29°29' W 094°52'2 4.1
2017-Dec-10 04:30N 29°31' W 094°53'3 5.1
2017-Dec-10 04:00N 29°33' W 094°55'3 5.3
2017-Dec-10 03:30N 29°35' W 094°56'3 5.4
2017-Dec-10 03:00N 29°38' W 094°58'3 5.7
2017-Dec-10 02:30N 29°41' W 094°59'3 5.8
2017-Dec-10 02:00N 29°42' W 095°01'3 5.3
2017-Dec-10 01:30N 29°44' W 095°03'2 4.3
2017-Dec-10 01:00N 29°45' W 095°06'1 0.6
2017-Dec-09 23:16N 29°46' W 095°07'0 0.1
2017-Dec-09 22:57N 29°46' W 095°07'0 0.0
2017-Dec-09 20:55N 29°46' W 095°07'0 0.0
2017-Dec-09 19:53N 29°46' W 095°07'0 0.0
2017-Dec-09 19:29N 29°46' W 095°07'0 0.0
2017-Dec-09 16:54N 29°46' W 095°07'0 0.0
2017-Dec-09 16:30N 29°46' W 095°06'1 1.1
2017-Dec-09 15:38N 29°45' W 095°06'1 6.9
2017-Dec-09 15:30N 29°46' W 095°05'2 3.3
2017-Dec-09 14:59N 29°48' W 095°04'0 0.0
2017-Dec-09 14:23N 29°48' W 095°04'0 0.0
2017-Dec-09 13:29N 29°48' W 095°04'0 0.0
2017-Dec-09 12:59N 29°48' W 095°04'0 0.0
2017-Dec-09 12:29N 29°48' W 095°04'0 0.0
2017-Dec-09 12:00N 29°48' W 095°04'0 0.0
2017-Dec-09 11:30N 29°48' W 095°04'0 0.0
2017-Dec-09 11:00N 29°48' W 095°04'0 0.0
2017-Dec-09 10:30N 29°48' W 095°04'0 0.0
2017-Dec-09 10:00N 29°48' W 095°04'0 0.0
2017-Dec-09 09:30N 29°48' W 095°04'0 0.0
2017-Dec-09 08:57N 29°48' W 095°04'0 0.8
2017-Dec-09 08:30N 29°47' W 095°04'0 0.0
2017-Dec-09 08:00N 29°47' W 095°04'0 0.0
2017-Dec-09 07:26N 29°47' W 095°04'0 0.0
2017-Dec-09 06:56N 29°47' W 095°04'0 0.0
2017-Dec-09 06:25N 29°47' W 095°04'0 0.0
2017-Dec-09 05:54N 29°47' W 095°04'0 0.0
2017-Dec-09 05:20N 29°47' W 095°04'0 0.0
2017-Dec-09 04:57N 29°47' W 095°04'0 0.0
2017-Dec-09 04:27N 29°47' W 095°04'2 1.0
2017-Dec-09 02:33N 29°46' W 095°06'0 0.3
2017-Dec-09 02:30N 29°46' W 095°06'1 0.9
2017-Dec-09 01:07N 29°47' W 095°05'1 6.7
2017-Dec-09 01:00N 29°46' W 095°05'1 1.1
2017-Dec-09 00:30N 29°46' W 095°05'2 3.8
2017-Dec-09 00:00N 29°45' W 095°04'3 5.5
2017-Dec-08 23:30N 29°43' W 095°01'3 5.3
2017-Dec-08 23:00N 29°41' W 094°59'3 5.1
2017-Dec-08 22:30N 29°39' W 094°58'3 6.1
2017-Dec-08 21:59N 29°36' W 094°57'3 6.3
2017-Dec-08 21:30N 29°33' W 094°55'  
2017-Dec-01 14:48N 29°51' W 091°54'3 4.2
2017-Dec-01 14:08N 29°50' W 091°58'1 3.9
2017-Dec-01 14:01N 29°50' W 091°58'2 4.3
2017-Dec-01 13:31N 29°50' W 092°01'2 4.3
2017-Dec-01 13:01N 29°49' W 092°03'  
Track history (hours):
 
Tides and Currents Weather Stations Pressure Air Temp Water Temp Dewpoint Dewpoint Depression Visibility Wind Speed Wind Dir Waves Ship Positions

M/V Saviour

Owner: Marquette Transportation Company Gulf-Inland, LLC, Jefferson, LA. More information available from US FCC via Universal Licensing System and Coast Guard Vessel Documentation Center.

Last reported at 2017-Dec-11 12:48 UTC. Time now 2017-Dec-14 13:12 UTC.
Position N 29°58' W 092°49'.

Length 22 m; draft 2.7 m.

Type: . MMSI: 367151460.

Date/timePositionNaut miles runAvg speedWind from/ knotsBaromVisibWave heightAir tempDewpointWater temp
2017-Dec-11 12:48N 29°58' W 092°49'1 4.4
2017-Dec-11 12:30N 29°58' W 092°50'2 4.4
2017-Dec-11 12:00N 29°57' W 092°53'2 4.3
2017-Dec-11 11:30N 29°56' W 092°55'2 4.2
2017-Dec-11 11:00N 29°56' W 092°57'2 4.2
2017-Dec-11 10:30N 29°56' W 092°60'2 4.3
2017-Dec-11 10:00N 29°56' W 093°02'2 3.7
2017-Dec-11 09:31N 29°56' W 093°04'2 4.2
2017-Dec-11 09:00N 29°56' W 093°07'2 4.3
2017-Dec-11 08:30N 29°56' W 093°09'2 3.2
2017-Dec-11 08:00N 29°57' W 093°11'2 3.7
2017-Dec-11 07:31N 29°59' W 093°12'2 4.3
2017-Dec-11 07:00N 30°00' W 093°14'2 3.6
2017-Dec-11 06:30N 30°02' W 093°15'2 3.9
2017-Dec-11 06:01N 30°04' W 093°16'2 4.4
2017-Dec-11 05:31N 30°05' W 093°17'0 0.9
2017-Dec-11 05:01N 30°05' W 093°18'2 3.4
2017-Dec-11 04:30N 30°05' W 093°20'2 4.3
2017-Dec-11 04:00N 30°04' W 093°22'2 4.5
2017-Dec-11 03:30N 30°04' W 093°24'2 4.8
2017-Dec-11 03:00N 30°04' W 093°27'2 3.4
2017-Dec-11 02:30N 30°04' W 093°29'2 4.6
2017-Dec-11 02:01N 30°04' W 093°32'2 4.7
2017-Dec-11 01:31N 30°04' W 093°34'2 4.7
2017-Dec-11 00:59N 30°04' W 093°37'2 4.5
2017-Dec-11 00:30N 30°04' W 093°40'3 4.5
2017-Dec-10 23:49N 30°03' W 093°43'70 4.1
2017-Dec-10 06:47N 29°22' W 094°48'1 4.4
2017-Dec-10 06:30N 29°23' W 094°49'2 4.5
2017-Dec-10 05:57N 29°26' W 094°50'2 4.2
2017-Dec-10 05:26N 29°27' W 094°51'2 4.6
2017-Dec-10 04:59N 29°29' W 094°52'2 4.1
2017-Dec-10 04:30N 29°31' W 094°53'3 5.1
2017-Dec-10 04:00N 29°33' W 094°55'3 5.3
2017-Dec-10 03:30N 29°35' W 094°56'3 5.4
2017-Dec-10 03:00N 29°38' W 094°58'3 5.7
2017-Dec-10 02:30N 29°41' W 094°59'3 5.8
2017-Dec-10 02:00N 29°42' W 095°01'3 5.3
2017-Dec-10 01:30N 29°44' W 095°03'2 4.3
2017-Dec-10 01:00N 29°45' W 095°06'1 0.6
2017-Dec-09 23:16N 29°46' W 095°07'0 0.1
2017-Dec-09 22:57N 29°46' W 095°07'0 0.0
2017-Dec-09 20:55N 29°46' W 095°07'0 0.0
2017-Dec-09 19:53N 29°46' W 095°07'0 0.0
2017-Dec-09 19:29N 29°46' W 095°07'0 0.0
2017-Dec-09 16:54N 29°46' W 095°07'0 0.0
2017-Dec-09 16:30N 29°46' W 095°06'1 1.1
2017-Dec-09 15:38N 29°45' W 095°06'1 6.9
2017-Dec-09 15:30N 29°46' W 095°05'2 3.3
2017-Dec-09 14:59N 29°48' W 095°04'0 0.0
2017-Dec-09 14:23N 29°48' W 095°04'0 0.0
2017-Dec-09 13:29N 29°48' W 095°04'0 0.0
2017-Dec-09 12:59N 29°48' W 095°04'0 0.0
2017-Dec-09 12:29N 29°48' W 095°04'0 0.0
2017-Dec-09 12:00N 29°48' W 095°04'0 0.0
2017-Dec-09 11:30N 29°48' W 095°04'0 0.0
2017-Dec-09 11:00N 29°48' W 095°04'0 0.0
2017-Dec-09 10:30N 29°48' W 095°04'0 0.0
2017-Dec-09 10:00N 29°48' W 095°04'0 0.0
2017-Dec-09 09:30N 29°48' W 095°04'0 0.0
2017-Dec-09 08:57N 29°48' W 095°04'0 0.8
2017-Dec-09 08:30N 29°47' W 095°04'0 0.0
2017-Dec-09 08:00N 29°47' W 095°04'0 0.0
2017-Dec-09 07:26N 29°47' W 095°04'0 0.0
2017-Dec-09 06:56N 29°47' W 095°04'0 0.0
2017-Dec-09 06:25N 29°47' W 095°04'0 0.0
2017-Dec-09 05:54N 29°47' W 095°04'0 0.0
2017-Dec-09 05:20N 29°47' W 095°04'0 0.0
2017-Dec-09 04:57N 29°47' W 095°04'0 0.0
2017-Dec-09 04:27N 29°47' W 095°04'2 1.0
2017-Dec-09 02:33N 29°46' W 095°06'0 0.3
2017-Dec-09 02:30N 29°46' W 095°06'1 0.9
2017-Dec-09 01:07N 29°47' W 095°05'1 6.7
2017-Dec-09 01:00N 29°46' W 095°05'1 1.1
2017-Dec-09 00:30N 29°46' W 095°05'2 3.8
2017-Dec-09 00:00N 29°45' W 095°04'3 5.5
2017-Dec-08 23:30N 29°43' W 095°01'3 5.3
2017-Dec-08 23:00N 29°41' W 094°59'3 5.1
2017-Dec-08 22:30N 29°39' W 094°58'3 6.1
2017-Dec-08 21:59N 29°36' W 094°57'3 6.3
2017-Dec-08 21:30N 29°33' W 094°55'  
2017-Dec-01 14:48N 29°51' W 091°54'3 4.2
2017-Dec-01 14:08N 29°50' W 091°58'1 3.9
2017-Dec-01 14:01N 29°50' W 091°58'2 4.3
2017-Dec-01 13:31N 29°50' W 092°01'2 4.3
2017-Dec-01 13:01N 29°49' W 092°03'  

Dump ship's entire track history